AirNav   Everest Fuels
 
 1579 users online  

KWAY Greene County Airport
Waynesburg, Pennsylvania, USA

GOING TO WAYNESBURG?


FAA INFORMATION EFFECTIVE 10 SEPTEMBER 2020

Location

FAA Identifier: WAY
Lat/Long: 39-54-04.1000N 080-07-50.5000W
39-54.068333N 080-07.841667W
39.9011389,-80.1306944
(estimated)
Elevation: 1068.6 ft. / 325.7 m (surveyed)
Variation: 09W (2010)
From city: 2 miles E of WAYNESBURG, PA
Time zone: UTC -4 (UTC -5 during Standard Time)
Zip code: 15370

Airport Operations

Airport use: Open to the public
Activation date: 12/1937
Control tower: no
ARTCC: CLEVELAND CENTER
FSS: ALTOONA FLIGHT SERVICE STATION
NOTAMs facility: AOO (NOTAM-D service available)
Attendance: UNATNDD
FOR SVC AFT HOURS CTC 724-993-2190.
Wind indicator: lighted
Segmented circle: yes
Beacon: white-green (lighted land airport)
Operates sunset to sunrise.

Airport Communications

CTAF/UNICOM: 122.8
CLARKSBURG APPROACH: 121.15
CLARKSBURG DEPARTURE: 121.15
WX AWOS-3PT at AFJ (16 nm NW): 119.175 (724-228-3529)
WX ASOS at MGW (18 nm SE): 120.675 (304-296-7103)
  • APCH/DEP SVC PRVDD BY CLEVELAND ARTCC ON FREQS 126.950/239.3 (BELMONT RCAG) WHEN CLARKSBURG APCH CLSD.

Nearby radio navigation aids

VOR radial/distance  VOR name  Freq  Var
AGCr199/23.0ALLEGHENY VOR/DME110.0009W
MGWr334/24.1MORGANTOWN VOR/DME111.6005W
HLGr144/29.5WHEELING VOR/DME112.2007W
AIRr109/32.3BELLAIRE VOR/DME117.1007W
IHDr269/35.8INDIAN HEAD VORTAC108.2006W
CKBr013/39.4CLARKSBURG VOR/DME112.6004W

Airport Services

Fuel available: 100LL
Parking: hangars and tiedowns
Airframe service: MAJOR
Powerplant service: MAJOR
Bottled oxygen: NONE

Runway Information

Runway 9/27

Dimensions: 3500 x 75 ft. / 1067 x 23 m
Surface: asphalt, in fair condition
Weight bearing capacity: 
Single wheel: 12.0
Runway edge lights: medium intensity
NON-STANDARD SPACING
Runway edge markings: RY 09 TWO 10 FT BY 120 FT CONCRETE PATCHES LCTD APPRXLY 570 FT DOWN THE RY ON EACH SIDE OF THE CNTRLN.
RUNWAY 9  RUNWAY 27
Latitude: 39-54.013167N39-54.124667N
Longitude: 080-08.209167W080-07.475000W
Elevation: 1064.9 ft.1062.1 ft.
Traffic pattern: leftleft
Markings: basic, in fair conditionbasic, in fair condition
Visual slope indicator: 4-box VASI on right (3.75 degrees glide path)
Touchdown point: yes, no lightsyes, no lights
Obstructions: 8 ft. trees, 253 ft. from runway, 117 ft. left of centerline, 6:1 slope to clear
11 FT BRUSH, 84 FT FM RWY END, 163 FT R; 10 FT TREES, 147 FT FM RWY END 137 FT R; 8 FT TREES, 153 FT FM RWY END 100 FT R; 4 FT BRUSH, 159 FT FM RWY END 102 FT L; 13 FT TREES 126 FT FM RWY END 164 FT L; 5 FT TREES 70 FT FM RWY END 108 FT L; 14 FT TREES 94 FT FM RWY END 181 FT L. 16 FT TREES 66 FT FM RWY END 215 FT LT. 9 FT TREES 29 FT FM RWY END 126 FT LT.
14 ft. trees, 253 ft. from runway, 131 ft. right of centerline, 3:1 slope to clear
5 FT BRUSH 182 FT FM RWY END 20 FT LT; 7 FT BRUSH 65 FT FM RWY END 112 FT LT.

Airport Ownership and Management from official FAA records

Ownership: Publicly-owned
Owner: GREENE COUNTY
COUNTY OFFICE BLDG
WAYNESBURG, PA 15370
Phone 724-852-5323
Manager: MARIO BARCHIESI
107 FAIRGROUNDS RD
WAYNESBURG, PA 15370
Phone 724-998-5042

Airport Operational Statistics

Aircraft based on the field: 21
Single engine airplanes: 19
Ultralights: 2
    
Aircraft operations: avg 27/day *
80% local general aviation
20% transient general aviation
<1% military
* for 12-month period ending 23 July 2020

Additional Remarks

GROUND DROPS OFF SHARPLY EAST END RY 09/27.
DEER AND BIRDS ON & INVOF RY.
290 FT HIGH TERRAIN 1,900 FT SOUTH OF RY.
FOR CD CTC CLARKSBURG APCH AT 304-842-2011, WHEN APCH CLSD CTC CLEVELAND ARTCC AT 440-774-0226.

Instrument Procedures

NOTE: All procedures below are presented as PDF files. If you need a reader for these files, you should download the free Adobe Reader.

NOT FOR NAVIGATION. Please procure official charts for flight.
FAA instrument procedures published for use from 10 September 2020 at 0901Z to 08 October 2020 at 0900z.

 
IAPs - Instrument Approach Procedures
RNAV (GPS) RWY 27 **CHANGED**   download (194KB)
RNAV (GPS) Z RWY 09 **CHANGED**   download (194KB)
COPTER RNAV (GPS) Y RWY 09 **CHANGED**   download (176KB)
NOTE: Special Take-Off Minimums/Departure Procedures apply   download (149KB)

Other nearby airports with instrument procedures:

KAFJ - Washington County Airport (16 nm NW)
KMGW - Morgantown Municipal Airport-Walter L. Bill Hart Field (18 nm SE)
G05 - Finleyville Airpark (21 nm N)
KVVS - Joseph A Hardy Connellsville Airport (22 nm E)
KFWQ - Rostraver Airport (23 nm NE)
 
Loc | Ops | Rwys | IFR | FBO | Links
Com | Nav | Svcs | Stats | Notes
Area around KWAY (Greene County Airport)
 
Road maps at: MapQuest Bing Google
 
Aerial photo
WARNING: Photo may not be current or correct
Aerial photo of KWAY (Greene County Airport)
Photo by Brittney Menear
Photo taken 18-Apr-2017
looking southwest.

Do you have a better or more recent aerial photo of Greene County Airport that you would like to share? If so, please send us your photo.

 
Sectional chart

 
Airport distance calculator
Flying to Greene County Airport? Find the distance to fly.

From to KWAY

Sunrise and sunset
Times for 25-Sep-2020
 Local
(UTC-4)
 Zulu
(UTC)
Morning civil twilight06:4610:46
Sunrise07:1311:13
Sunset19:1123:11
Evening civil twilight19:3823:38

Current date and time
Zulu (UTC)  25-Sep-2020 15:49:01
Local (UTC-4)  25-Sep-2020 11:49:01
 
METAR
KAFJ 
14nm NW 
251456Z AUTO 07006KT 10SM CLR 21/16 A3011 RMK AO2 SLP193 T02110161 58004
KMGW 
18nm SE 
251453Z 11007KT 10SM CLR 23/12 A3008 RMK AO2 SLP180 T02280122 58004 $
KP53 
23nm NE 
251456Z AUTO 20008KT 19/16 A2987 RMK AO1 SLP114 T01890156 58004
KAGC 
29nm N 
251453Z 11004KT 10SM CLR 20/15 A3009 RMK AO2 SLP190 T02000150 50003
KHLG 
29nm NW 
251453Z 05007KT 10SM CLR 21/14 A3008 RMK AO2 SLP184 T02110144 50000
TAF
KMGW 
18nm SE 
251120Z 2512/2612 00000KT P6SM BKN200 FM252000 24003KT P6SM BKN050
NOTAMs
Click for the latest NOTAMs
NOTAMs are issued by the DoD/FAA and will open in a separate window not controlled by AirNav.

 

 
 

FBO, Fuel Providers, and Aircraft Ground Support

  
 Business Name 
 
 Contact 
 
 Services / Description 
 
Fuel Prices
 
Comments
  
Greene County Airport 724-627-8029
no information available

If you are affiliated with Greene County Airport and would like to show here your services, contact info, web link, logo, and more, click here
100LL
SS $5.20 
 Updated 21-Sep-2020
 
   write
SS=Self service
Update Fuel Prices
 

Where to Eat: Catering, Restaurants, Food shops

  
 Business Name 
 
 Contact 
 
 Services / Description 
 
Distance
 
Comments
  
Airport Restaurant 724-627-8207
no information available

If you are affiliated with Airport Restaurant and would like to show here your services, contact info, web link, logo, and more, click here
on airport  
   write
 

Would you like to see your business listed on this page?

 If your business provides an interesting product or service to pilots, flight crews, aircraft, or users of the Greene County Airport, you should consider listing it here.  To start the listing process, click on the button below
 
Add a business
 

Other Pages about Greene County Airport

www.co.greene.pa.us/pd-airport.html
 
Update a link
 
Copyright © AirNav, LLC. All rights reserved. Privacy Policy  Contact